createdAt,value
2022-08-26T00:01:00.218Z,99816.63
2022-08-26T00:06:02.150Z,99811.34
2022-08-26T00:11:04.567Z,99809.31
2022-08-26T00:16:08.885Z,99806.38
2022-08-26T00:21:13.300Z,99809.25
2022-08-26T00:26:15.383Z,99797.47
2022-08-26T00:31:17.107Z,99800.94
2022-08-26T00:36:20.377Z,99799.25
2022-08-26T00:41:22.249Z,99793.31
2022-08-26T00:46:29.164Z,99788.59
2022-08-26T00:51:31.498Z,99786.56
2022-08-26T00:56:47.056Z,99788.09
2022-08-26T01:01:51.649Z,99783.25
2022-08-26T01:06:54.574Z,99780.00
2022-08-26T01:11:59.372Z,99776.53
2022-08-26T01:17:05.056Z,99771.84
2022-08-26T01:22:12.291Z,99771.44
2022-08-26T01:27:17.992Z,99778.16
2022-08-26T01:32:22.465Z,99767.63
2022-08-26T01:37:32.945Z,99764.81
2022-08-26T01:42:34.795Z,99769.72
2022-08-26T01:47:38.440Z,99773.81
2022-08-26T01:52:43.230Z,99775.53
2022-08-26T01:57:47.554Z,99772.88
2022-08-26T02:03:13.795Z,99779.59
2022-08-26T02:08:20.526Z,99778.88
2022-08-26T02:13:30.055Z,99783.06
2022-08-26T02:18:35.056Z,99777.56
2022-08-26T02:23:38.190Z,99780.25
2022-08-26T02:28:56.385Z,99781.72
2022-08-26T02:34:13.525Z,99776.59
2022-08-26T02:39:22.295Z,99778.69
2022-08-26T02:44:24.187Z,99773.22
2022-08-26T02:49:27.834Z,99777.28
2022-08-26T02:54:29.635Z,99769.56
2022-08-26T02:59:32.440Z,99766.34
2022-08-26T03:04:34.202Z,99770.69
2022-08-26T03:09:35.910Z,99768.94
2022-08-26T03:14:37.893Z,99768.50
2022-08-26T03:19:39.654Z,99762.56
2022-08-26T03:24:46.197Z,99761.69
2022-08-26T03:30:06.636Z,99754.56
2022-08-26T03:35:09.566Z,99759.75
2022-08-26T03:40:12.173Z,99748.56
2022-08-26T03:45:15.431Z,99744.09
2022-08-26T03:50:23.022Z,99745.75
2022-08-26T03:55:28.233Z,99749.25
2022-08-26T04:00:30.700Z,99752.91
2022-08-26T04:05:32.402Z,99748.28
2022-08-26T04:10:34.148Z,99744.16
2022-08-26T04:15:35.853Z,99738.09
2022-08-26T04:20:37.922Z,99745.00
2022-08-26T04:25:40.575Z,99744.66
2022-08-26T04:30:42.502Z,99748.69
2022-08-26T04:35:45.256Z,99751.25
2022-08-26T04:40:49.818Z,99755.75
2022-08-26T04:45:51.454Z,99744.13
2022-08-26T04:50:53.309Z,99744.97
2022-08-26T04:55:55.215Z,99751.81
2022-08-26T05:00:57.165Z,99739.88
2022-08-26T05:05:58.789Z,99752.75
2022-08-26T05:11:04.810Z,99744.44
2022-08-26T05:16:11.598Z,99751.69
2022-08-26T05:21:22.176Z,99752.75
2022-08-26T05:26:27.522Z,99753.97
2022-08-26T05:31:32.632Z,99748.78
2022-08-26T05:36:39.302Z,99751.31
2022-08-26T05:41:42.890Z,99752.16
2022-08-26T05:46:46.785Z,99742.16
2022-08-26T05:51:48.512Z,99753.22
2022-08-26T05:56:52.576Z,99748.94
2022-08-26T06:01:57.363Z,99751.66
2022-08-26T06:06:59.977Z,99747.56
2022-08-26T06:12:01.914Z,99750.94
2022-08-26T06:17:04.412Z,99759.63
2022-08-26T06:22:26.170Z,99760.00
2022-08-26T06:27:32.498Z,99759.88
2022-08-26T06:32:34.593Z,99765.88
2022-08-26T06:37:36.834Z,99760.72
2022-08-26T06:42:38.647Z,99752.22
2022-08-26T06:47:40.916Z,99750.84
2022-08-26T06:52:42.635Z,99756.44
2022-08-26T06:57:44.281Z,99754.56
2022-08-26T07:02:46.958Z,99748.31
2022-08-26T07:07:49.255Z,99742.63
2022-08-26T07:12:51.476Z,99757.78
2022-08-26T07:17:53.084Z,99753.50
2022-08-26T07:22:54.893Z,99747.25
2022-08-26T07:27:56.611Z,99754.06
2022-08-26T07:32:59.260Z,99752.59
2022-08-26T07:38:01.708Z,99747.22
2022-08-26T07:43:03.955Z,99752.75
2022-08-26T07:48:05.875Z,99737.03
2022-08-26T07:53:10.810Z,99737.16
2022-08-26T07:58:12.850Z,99731.78
2022-08-26T08:03:15.169Z,99724.84
2022-08-26T08:08:26.727Z,99726.59
2022-08-26T08:13:30.082Z,99720.53
2022-08-26T08:18:31.891Z,99715.16
2022-08-26T08:23:33.886Z,99710.59
2022-08-26T08:28:37.017Z,99709.47
2022-08-26T08:33:38.737Z,99702.94
2022-08-26T08:38:40.581Z,99695.72
2022-08-26T08:43:47.444Z,99693.59
2022-08-26T08:48:59.255Z,99688.19
2022-08-26T08:54:02.685Z,99679.16
2022-08-26T08:59:18.750Z,99684.28
2022-08-26T09:04:43.467Z,99689.81
2022-08-26T09:10:00.866Z,99681.03
2022-08-26T09:15:07.850Z,99665.44
2022-08-26T09:20:37.831Z,99667.47
2022-08-26T09:25:49.969Z,99670.31
2022-08-26T09:31:14.097Z,99658.84
2022-08-26T09:36:18.814Z,99656.38
2022-08-26T09:41:33.131Z,99665.53
2022-08-26T09:46:35.608Z,99660.22
2022-08-26T09:51:37.558Z,99671.09
2022-08-26T09:56:39.770Z,99648.19
2022-08-26T10:01:44.778Z,99657.63
2022-08-26T10:07:08.129Z,99648.47
2022-08-26T10:12:19.306Z,99638.09
2022-08-26T10:17:26.604Z,99633.66
2022-08-26T10:22:47.680Z,99639.34
2022-08-26T10:28:03.235Z,99638.28
2022-08-26T10:33:11.045Z,99623.91
2022-08-26T10:38:17.025Z,99612.09
2022-08-26T10:43:27.158Z,99596.03
2022-08-26T10:48:59.995Z,99586.38
2022-08-26T10:54:01.828Z,99583.44
2022-08-26T10:59:38.504Z,99593.50
2022-08-26T11:04:59.059Z,99599.63
2022-08-26T11:10:20.611Z,99584.88
2022-08-26T11:15:26.078Z,99572.56
2022-08-26T11:20:41.581Z,99587.47
2022-08-26T11:26:01.953Z,99599.16
2022-08-26T11:31:08.596Z,99580.31
2022-08-26T11:36:26.052Z,99566.50
2022-08-26T11:41:30.891Z,99549.16
2022-08-26T11:46:37.489Z,99538.56
2022-08-26T11:51:40.851Z,99526.72
2022-08-26T11:56:46.866Z,99503.47
2022-08-26T12:01:51.274Z,99506.03
2022-08-26T12:06:53.431Z,99491.91
2022-08-26T12:12:16.462Z,99491.06
2022-08-26T12:17:26.962Z,99485.53
2022-08-26T12:22:32.121Z,99489.00
2022-08-26T12:27:39.867Z,99483.31
2022-08-26T12:32:57.511Z,99483.56
2022-08-26T12:38:00.027Z,99480.25
2022-08-26T12:43:04.987Z,99480.97
2022-08-26T12:48:08.539Z,99481.16
2022-08-26T12:53:10.254Z,99475.97
2022-08-26T12:58:15.755Z,99477.53
2022-08-26T13:03:35.323Z,99474.88
2022-08-26T13:08:40.484Z,99463.22
2022-08-26T13:13:42.174Z,99456.44
2022-08-26T13:18:43.806Z,99447.28
2022-08-26T13:23:46.481Z,99438.97
2022-08-26T13:29:02.001Z,99447.66
2022-08-26T13:34:04.848Z,99457.66
2022-08-26T13:39:06.696Z,99472.25
2022-08-26T13:44:08.363Z,99474.66
2022-08-26T13:49:10.668Z,99471.06
2022-08-26T13:54:12.366Z,99471.59
2022-08-26T13:59:14.372Z,99470.19
2022-08-26T14:04:15.965Z,99450.00
2022-08-26T14:09:24.908Z,99466.31
2022-08-26T14:14:26.939Z,99455.31
2022-08-26T14:19:30.051Z,99450.06
2022-08-26T14:24:31.669Z,99434.06
2022-08-26T14:29:33.413Z,99434.38
2022-08-26T14:34:35.205Z,99432.25
2022-08-26T14:39:37.343Z,99439.53
2022-08-26T14:44:43.483Z,99424.00
2022-08-26T14:49:45.158Z,99420.16
2022-08-26T14:54:46.786Z,99404.47
2022-08-26T14:59:50.473Z,99416.00
2022-08-26T15:04:52.220Z,99397.63
2022-08-26T15:09:53.855Z,99390.00
2022-08-26T15:14:55.583Z,99410.06
2022-08-26T15:19:57.688Z,99421.09
2022-08-26T15:24:59.533Z,99427.63
2022-08-26T15:30:10.548Z,99426.88
2022-08-26T15:35:12.185Z,99433.91
2022-08-26T15:40:13.928Z,99431.84
2022-08-26T15:45:25.994Z,99419.66
2022-08-26T15:50:29.024Z,99426.16
2022-08-26T15:55:30.613Z,99443.16
2022-08-26T16:00:32.960Z,99452.75
2022-08-26T16:05:39.255Z,99447.25
2022-08-26T16:10:49.204Z,99457.69
2022-08-26T16:15:52.842Z,99465.63
2022-08-26T16:21:12.729Z,99463.59
2022-08-26T16:26:24.276Z,99460.03
2022-08-26T16:31:26.129Z,99466.63
2022-08-26T16:36:27.849Z,99458.06
2022-08-26T16:41:31.742Z,99447.41
2022-08-26T16:46:35.644Z,99430.91
2022-08-26T16:51:38.450Z,99424.63
2022-08-26T16:56:40.263Z,99433.91
2022-08-26T17:01:41.886Z,99443.63
2022-08-26T17:06:43.556Z,99429.53
2022-08-26T17:11:45.562Z,99435.28
2022-08-26T17:16:51.100Z,99446.09
2022-08-26T17:21:52.596Z,99453.00
2022-08-26T17:26:55.774Z,99437.94
2022-08-26T17:31:57.481Z,99417.56
2022-08-26T17:36:59.480Z,99425.38
2022-08-26T17:42:01.019Z,99414.41
2022-08-26T17:47:02.588Z,99393.59
2022-08-26T17:52:07.477Z,99381.09
2022-08-26T17:57:12.681Z,99399.53
2022-08-26T18:02:14.647Z,99412.78
2022-08-26T18:07:17.025Z,99418.59
2022-08-26T18:12:18.687Z,99418.16
2022-08-26T18:17:20.393Z,99431.53
2022-08-26T18:22:23.290Z,99437.63
2022-08-26T18:27:25.110Z,99433.72
2022-08-26T18:32:26.938Z,99430.59
2022-08-26T18:37:31.417Z,99444.91
2022-08-26T18:42:33.657Z,99480.09
2022-08-26T18:47:35.340Z,99489.41
2022-08-26T18:52:37.614Z,99481.75
2022-08-26T18:57:39.932Z,99491.47
2022-08-26T19:02:41.731Z,99488.81
2022-08-26T19:07:48.718Z,99474.41
2022-08-26T19:12:52.073Z,99475.53
2022-08-26T19:17:54.083Z,99485.53
2022-08-26T19:22:59.691Z,99467.31
2022-08-26T19:28:04.261Z,99471.41
2022-08-26T19:33:09.092Z,99465.63
2022-08-26T19:38:11.183Z,99464.19
2022-08-26T19:43:12.820Z,99486.47
2022-08-26T19:48:16.222Z,99489.72
2022-08-26T19:53:17.917Z,99476.84
2022-08-26T19:58:21.003Z,99461.34
2022-08-26T20:03:24.628Z,99446.41
2022-08-26T20:08:26.356Z,99433.31
2022-08-26T20:13:29.062Z,99413.09
2022-08-26T20:18:49.344Z,99428.91
2022-08-26T20:23:51.669Z,99450.31
2022-08-26T20:28:53.858Z,99457.00
2022-08-26T20:33:55.768Z,99474.19
2022-08-26T20:38:58.062Z,99478.91
2022-08-26T20:44:00.413Z,99479.91
2022-08-26T20:49:02.908Z,99466.94
2022-08-26T20:54:07.810Z,99470.66
2022-08-26T20:59:09.895Z,99470.63
2022-08-26T21:04:15.148Z,99472.53
2022-08-26T21:09:17.660Z,99472.13
2022-08-26T21:14:22.879Z,99476.88
2022-08-26T21:19:27.408Z,99481.31
2022-08-26T21:24:29.088Z,99479.19
2022-08-26T21:29:30.800Z,99483.41
2022-08-26T21:34:32.589Z,99481.97
2022-08-26T21:39:34.195Z,99481.31
2022-08-26T21:44:35.792Z,99470.88
2022-08-26T21:49:37.773Z,99467.13
2022-08-26T21:54:39.578Z,99472.16
2022-08-26T21:59:41.188Z,99453.78
2022-08-26T22:04:46.812Z,99440.44
2022-08-26T22:09:50.451Z,99429.78
2022-08-26T22:14:52.189Z,99429.94
2022-08-26T22:19:54.441Z,99444.09
2022-08-26T22:24:56.068Z,99451.63
2022-08-26T22:29:57.845Z,99444.13
2022-08-26T22:34:59.576Z,99450.59
2022-08-26T22:40:01.298Z,99448.56
2022-08-26T22:45:05.897Z,99442.66
2022-08-26T22:50:08.931Z,99448.09
2022-08-26T22:55:10.938Z,99451.22
2022-08-26T23:00:14.157Z,99456.81
2022-08-26T23:05:16.427Z,99461.84
2022-08-26T23:10:18.097Z,99465.81
2022-08-26T23:15:20.883Z,99471.31
2022-08-26T23:20:22.708Z,99462.97
2022-08-26T23:25:24.803Z,99468.34
2022-08-26T23:30:28.387Z,99479.66
2022-08-26T23:35:30.168Z,99482.03
2022-08-26T23:40:34.912Z,99489.03
2022-08-26T23:45:37.148Z,99496.28
2022-08-26T23:50:57.381Z,99505.31
2022-08-26T23:55:59.007Z,99506.88
